createdAt,value
2017-08-24T00:00:49.304Z,0
2017-08-24T00:01:43.342Z,0
2017-08-24T00:02:43.355Z,0
2017-08-24T00:03:38.251Z,0
2017-08-24T00:04:33.356Z,0
2017-08-24T00:05:33.400Z,0
2017-08-24T00:06:28.268Z,0
2017-08-24T00:07:23.497Z,0
2017-08-24T00:08:24.687Z,0
2017-08-24T00:09:24.535Z,0
2017-08-24T00:10:24.667Z,0
2017-08-24T00:11:19.629Z,0
2017-08-24T00:12:13.648Z,0
2017-08-24T00:13:13.797Z,0
2017-08-24T00:14:08.776Z,0
2017-08-24T00:15:08.883Z,0
2017-08-24T00:16:02.917Z,0
2017-08-24T00:17:02.989Z,0
2017-08-24T00:17:57.949Z,0
2017-08-24T00:18:53.116Z,0
2017-08-24T00:19:53.157Z,0
2017-08-24T00:20:48.048Z,0
2017-08-24T00:21:43.034Z,0
2017-08-24T00:22:43.881Z,0
2017-08-24T00:23:43.892Z,0
2017-08-24T00:24:38.931Z,0
2017-08-24T00:25:39.347Z,0
2017-08-24T00:26:33.290Z,0
2017-08-24T00:27:28.395Z,0
2017-08-24T00:28:29.326Z,0
2017-08-24T00:29:23.442Z,0
2017-08-24T00:30:23.391Z,0
2017-08-24T00:31:12.606Z,0
2017-08-24T00:32:00.610Z,0
2017-08-24T00:32:49.627Z,0
2017-08-24T00:33:37.708Z,0
2017-08-24T00:34:26.752Z,0
2017-08-24T00:35:21.802Z,0
2017-08-24T00:36:15.817Z,0
2017-08-24T00:37:03.779Z,0
2017-08-24T00:37:51.917Z,0
2017-08-24T00:38:39.917Z,0
2017-08-24T00:39:40.960Z,0
2017-08-24T00:40:41.015Z,0
2017-08-24T00:41:41.034Z,0
2017-08-24T00:42:35.017Z,0
2017-08-24T00:43:36.080Z,0
2017-08-24T00:44:31.164Z,0
2017-08-24T00:45:31.072Z,0
2017-08-24T00:46:31.221Z,0
2017-08-24T00:47:25.186Z,0
2017-08-24T00:48:19.145Z,0
2017-08-24T00:49:13.302Z,0
2017-08-24T00:50:08.296Z,0
2017-08-24T00:50:56.469Z,0
2017-08-24T00:51:45.465Z,0
2017-08-24T00:52:40.406Z,0
2017-08-24T00:53:28.552Z,0
2017-08-24T00:54:22.503Z,0
2017-08-24T00:55:16.618Z,0
2017-08-24T00:56:17.674Z,0
2017-08-24T00:57:11.674Z,0
2017-08-24T00:58:11.774Z,0
2017-08-24T00:59:05.798Z,0
2017-08-24T00:59:59.834Z,0
2017-08-24T01:00:47.865Z,0
2017-08-24T01:01:36.892Z,0
2017-08-24T01:02:31.957Z,0
2017-08-24T01:03:20.031Z,0
2017-08-24T01:04:14.098Z,0
2017-08-24T01:05:08.004Z,0
2017-08-24T01:06:02.142Z,0
2017-08-24T01:06:56.241Z,0
2017-08-24T01:07:50.174Z,0
2017-08-24T01:08:51.249Z,0
2017-08-24T01:09:51.248Z,0
2017-08-24T01:10:51.430Z,0
2017-08-24T01:11:39.449Z,0
2017-08-24T01:12:33.439Z,0
2017-08-24T01:13:27.455Z,0
2017-08-24T01:14:27.591Z,0
2017-08-24T01:15:22.545Z,0
2017-08-24T01:16:11.630Z,0
2017-08-24T01:17:06.677Z,0
2017-08-24T01:17:55.651Z,0
2017-08-24T01:18:43.690Z,0
2017-08-24T01:19:37.707Z,0
2017-08-24T01:20:37.956Z,0
2017-08-24T01:21:32.936Z,0
2017-08-24T01:22:32.847Z,0
2017-08-24T01:23:26.833Z,0
2017-08-24T01:24:21.906Z,0
2017-08-24T01:25:16.007Z,0
2017-08-24T01:26:17.065Z,0
2017-08-24T01:27:18.022Z,0
2017-08-24T01:28:12.028Z,0
2017-08-24T01:29:06.090Z,0
2017-08-24T01:30:01.236Z,0
2017-08-24T01:30:55.206Z,0
2017-08-24T01:31:44.338Z,0
2017-08-24T01:32:38.313Z,0
2017-08-24T01:33:38.323Z,0
2017-08-24T01:34:27.359Z,0
2017-08-24T01:35:16.454Z,0
2017-08-24T01:36:10.447Z,0
2017-08-24T01:37:05.447Z,0
2017-08-24T01:37:54.653Z,0
2017-08-24T01:38:48.667Z,0
2017-08-24T01:39:42.569Z,0
2017-08-24T01:40:36.067Z,0
2017-08-24T01:41:25.817Z,0
2017-08-24T01:42:19.802Z,0
2017-08-24T01:43:13.849Z,0
2017-08-24T01:44:07.836Z,0
2017-08-24T01:45:08.795Z,0
2017-08-24T01:46:03.015Z,0
2017-08-24T01:46:56.937Z,0
2017-08-24T01:47:51.992Z,0
2017-08-24T01:48:41.098Z,0
2017-08-24T01:49:29.054Z,0
2017-08-24T01:50:29.202Z,0
2017-08-24T01:51:17.300Z,0
2017-08-24T01:52:12.296Z,0
2017-08-24T01:53:07.248Z,0
2017-08-24T01:54:01.305Z,0
2017-08-24T01:54:50.325Z,0
2017-08-24T01:55:39.405Z,0
2017-08-24T01:56:33.435Z,0
2017-08-24T01:57:21.420Z,0
2017-08-24T01:58:15.441Z,0
2017-08-24T01:59:15.557Z,0
2017-08-24T02:00:03.508Z,0
2017-08-24T02:00:58.563Z,0
2017-08-24T02:01:47.643Z,0
2017-08-24T02:02:47.721Z,0
2017-08-24T02:03:35.769Z,0
2017-08-24T02:04:29.896Z,0
2017-08-24T02:05:23.813Z,0
2017-08-24T02:06:23.828Z,0
2017-08-24T02:07:23.877Z,0
2017-08-24T02:08:18.996Z,0
2017-08-24T02:09:12.913Z,0
2017-08-24T02:10:13.077Z,0
2017-08-24T02:11:01.110Z,0
2017-08-24T02:11:49.114Z,0
2017-08-24T02:12:37.103Z,0
2017-08-24T02:13:25.194Z,0
2017-08-24T02:14:19.126Z,0
2017-08-24T02:15:13.186Z,0
2017-08-24T02:16:08.238Z,0
2017-08-24T02:17:02.300Z,0
2017-08-24T02:17:51.280Z,0
2017-08-24T02:18:46.452Z,0
2017-08-24T02:19:41.470Z,0
2017-08-24T02:20:41.477Z,0
2017-08-24T02:21:41.418Z,0
2017-08-24T02:22:35.476Z,0
2017-08-24T02:23:35.558Z,0
2017-08-24T02:24:29.626Z,0
2017-08-24T02:25:30.666Z,0
2017-08-24T02:26:25.314Z,0
2017-08-24T02:27:19.698Z,0
2017-08-24T02:28:13.451Z,0
2017-08-24T02:29:02.443Z,0
2017-08-24T02:29:56.579Z,0
2017-08-24T02:30:51.975Z,0
2017-08-24T02:31:40.036Z,0
2017-08-24T02:32:28.956Z,0
2017-08-24T02:33:17.754Z,0
2017-08-24T02:34:06.068Z,0
2017-08-24T02:35:00.215Z,0
2017-08-24T02:35:54.233Z,0
2017-08-24T02:36:47.860Z,0
2017-08-24T02:37:36.358Z,0
2017-08-24T02:38:25.297Z,0
2017-08-24T02:39:13.394Z,0
2017-08-24T02:40:01.300Z,0
2017-08-24T02:40:49.610Z,0
2017-08-24T02:41:49.088Z,0
2017-08-24T02:42:44.184Z,0
2017-08-24T02:43:44.632Z,0
2017-08-24T02:44:33.180Z,0
2017-08-24T02:45:22.740Z,0
2017-08-24T02:46:17.327Z,0
2017-08-24T02:47:11.780Z,0
2017-08-24T02:47:59.803Z,0
2017-08-24T02:48:48.816Z,0
2017-08-24T02:49:43.882Z,0
2017-08-24T02:50:38.121Z,0
2017-08-24T02:51:38.106Z,0
2017-08-24T02:52:39.067Z,0
2017-08-24T02:53:33.023Z,0
2017-08-24T02:54:33.011Z,0
2017-08-24T02:55:28.139Z,0
2017-08-24T02:56:23.224Z,0
2017-08-24T02:57:24.267Z,0
2017-08-24T02:58:19.280Z,0
2017-08-24T02:59:08.310Z,0
2017-08-24T02:59:56.467Z,0
2017-08-24T03:00:50.399Z,0
2017-08-24T03:01:45.449Z,0
2017-08-24T03:02:39.546Z,0
2017-08-24T03:03:33.533Z,0
2017-08-24T03:04:28.627Z,0
2017-08-24T03:05:28.617Z,0
2017-08-24T03:06:22.674Z,0
2017-08-24T03:07:22.763Z,0
2017-08-24T03:08:16.663Z,0
2017-08-24T03:09:10.841Z,0
2017-08-24T03:10:04.861Z,0
2017-08-24T03:10:58.873Z,0
2017-08-24T03:11:58.927Z,0
2017-08-24T03:12:53.959Z,0
2017-08-24T03:13:42.050Z,0
2017-08-24T03:14:36.069Z,0
2017-08-24T03:15:30.073Z,0
2017-08-24T03:16:24.158Z,0
2017-08-24T03:17:12.115Z,0
2017-08-24T03:18:06.150Z,0
2017-08-24T03:19:01.179Z,0
2017-08-24T03:20:01.295Z,0
2017-08-24T03:20:55.305Z,0
2017-08-24T03:21:55.435Z,0
2017-08-24T03:22:43.374Z,0
2017-08-24T03:23:32.477Z,0
2017-08-24T03:24:21.620Z,0
2017-08-24T03:25:10.499Z,0
2017-08-24T03:26:04.661Z,0
2017-08-24T03:26:53.690Z,0
2017-08-24T03:27:47.672Z,0
2017-08-24T03:28:36.780Z,0
2017-08-24T03:29:25.827Z,0
2017-08-24T03:30:20.773Z,0
2017-08-24T03:31:15.106Z,0
2017-08-24T03:32:15.966Z,0
2017-08-24T03:33:10.876Z,0
2017-08-24T03:34:10.980Z,0
2017-08-24T03:35:05.176Z,0
2017-08-24T03:35:54.044Z,0
2017-08-24T03:36:42.127Z,0
2017-08-24T03:37:30.089Z,0
2017-08-24T03:38:24.324Z,0
2017-08-24T03:39:24.306Z,0
2017-08-24T03:40:12.328Z,0
2017-08-24T03:41:00.477Z,0
2017-08-24T03:41:48.429Z,0
2017-08-24T03:42:43.481Z,0
2017-08-24T03:43:32.613Z,0
2017-08-24T03:44:21.551Z,0
2017-08-24T03:45:10.726Z,0
2017-08-24T03:46:04.599Z,0
2017-08-24T03:46:52.615Z,0
2017-08-24T03:47:53.670Z,0
2017-08-24T03:48:42.725Z,0
2017-08-24T03:49:36.775Z,0
2017-08-24T03:50:31.876Z,0
2017-08-24T03:51:31.747Z,0
2017-08-24T03:52:31.945Z,0
2017-08-24T03:53:25.881Z,0
2017-08-24T03:54:25.581Z,0
2017-08-24T03:55:13.563Z,0
2017-08-24T03:56:08.203Z,0
2017-08-24T03:57:02.962Z,0
2017-08-24T03:57:52.039Z,0
2017-08-24T03:58:41.191Z,0
2017-08-24T03:59:35.087Z,0
2017-08-24T04:00:30.234Z,4
2017-08-24T04:01:24.267Z,4
2017-08-24T04:02:24.267Z,4
2017-08-24T04:03:13.297Z,4
2017-08-24T04:04:02.306Z,4
2017-08-24T04:04:51.466Z,4
2017-08-24T04:05:39.452Z,4
2017-08-24T04:06:28.035Z,4
2017-08-24T04:07:17.421Z,4
2017-08-24T04:08:11.244Z,8
2017-08-24T04:09:00.205Z,4
2017-08-24T04:09:49.213Z,8
2017-08-24T04:10:43.311Z,12
2017-08-24T04:11:43.837Z,12
2017-08-24T04:12:44.377Z,16
2017-08-24T04:13:38.869Z,16
2017-08-24T04:14:32.497Z,20
2017-08-24T04:15:21.462Z,28
2017-08-24T04:16:15.403Z,32
2017-08-24T04:17:09.663Z,36
2017-08-24T04:17:58.658Z,44
2017-08-24T04:18:46.713Z,48
2017-08-24T04:19:47.849Z,60
2017-08-24T04:20:37.121Z,64
2017-08-24T04:21:30.826Z,76
2017-08-24T04:22:25.222Z,84
2017-08-24T04:23:20.183Z,88
2017-08-24T04:24:20.387Z,92
2017-08-24T04:25:09.334Z,104
2017-08-24T04:26:03.489Z,124
2017-08-24T04:26:51.542Z,140
2017-08-24T04:27:45.587Z,156
2017-08-24T04:28:45.591Z,168
2017-08-24T04:29:39.540Z,188
2017-08-24T04:30:27.711Z,204
2017-08-24T04:31:21.537Z,220
2017-08-24T04:32:15.308Z,240
2017-08-24T04:33:04.330Z,276
2017-08-24T04:33:53.771Z,316
2017-08-24T04:34:47.401Z,352
2017-08-24T04:35:36.803Z,396
2017-08-24T04:36:31.925Z,448
2017-08-24T04:37:20.948Z,476
2017-08-24T04:38:14.728Z,500
2017-08-24T04:39:08.727Z,528
2017-08-24T04:40:03.761Z,540
2017-08-24T04:40:52.207Z,560
2017-08-24T04:41:40.810Z,596
2017-08-24T04:42:34.806Z,648
2017-08-24T04:43:30.089Z,708
2017-08-24T04:44:18.183Z,800
2017-08-24T04:45:12.195Z,892
2017-08-24T04:46:06.174Z,940
2017-08-24T04:47:00.006Z,996
2017-08-24T04:47:53.996Z,1100
2017-08-24T04:48:43.188Z,1220
2017-08-24T04:49:32.417Z,1288
2017-08-24T04:50:26.725Z,1304
2017-08-24T04:51:15.249Z,1280
2017-08-24T04:52:10.292Z,1280
2017-08-24T04:53:04.390Z,1344
2017-08-24T04:53:53.549Z,1456
2017-08-24T04:54:48.406Z,1636
2017-08-24T04:55:48.406Z,1836
2017-08-24T04:56:42.787Z,1956
2017-08-24T04:57:42.545Z,2024
2017-08-24T04:58:36.596Z,2052
2017-08-24T04:59:36.716Z,2100
2017-08-24T05:00:32.112Z,2204
2017-08-24T05:01:19.839Z,2292
2017-08-24T05:02:13.737Z,2332
2017-08-24T05:03:07.905Z,2380
2017-08-24T05:04:02.825Z,2436
2017-08-24T05:05:03.295Z,2504
2017-08-24T05:05:57.136Z,2568
2017-08-24T05:06:45.983Z,2632
2017-08-24T05:07:46.023Z,2748
2017-08-24T05:08:39.961Z,2852
2017-08-24T05:09:41.090Z,2980
2017-08-24T05:10:30.648Z,3100
2017-08-24T05:11:25.554Z,3200
2017-08-24T05:12:19.199Z,3340
2017-08-24T05:13:07.208Z,3420
2017-08-24T05:14:02.742Z,3544
2017-08-24T05:15:02.277Z,3692
2017-08-24T05:15:58.100Z,3872
2017-08-24T05:16:58.525Z,4056
2017-08-24T05:17:46.893Z,4236
2017-08-24T05:18:35.674Z,4368
2017-08-24T05:19:30.623Z,4492
2017-08-24T05:20:18.599Z,4628
2017-08-24T05:21:18.753Z,4764
2017-08-24T05:22:13.111Z,4864
2017-08-24T05:23:00.719Z,4992
2017-08-24T05:23:54.784Z,5104
2017-08-24T05:24:49.115Z,5352
2017-08-24T05:25:43.808Z,5576
2017-08-24T05:26:38.849Z,5764
2017-08-24T05:27:33.954Z,5916
2017-08-24T05:28:27.884Z,5980
2017-08-24T05:29:22.071Z,6004
2017-08-24T05:30:16.198Z,5912
2017-08-24T05:31:11.131Z,5876
2017-08-24T05:32:00.418Z,5716
2017-08-24T05:32:55.122Z,5592
2017-08-24T05:33:44.293Z,5668
2017-08-24T05:34:33.337Z,5836
2017-08-24T05:35:27.931Z,6000
2017-08-24T05:36:27.323Z,6224
2017-08-24T05:37:27.461Z,6376
2017-08-24T05:38:27.874Z,6436
2017-08-24T05:39:21.614Z,6496
2017-08-24T05:40:09.557Z,6552
2017-08-24T05:40:58.723Z,6852
2017-08-24T05:41:52.589Z,6932
2017-08-24T05:42:46.719Z,6736
2017-08-24T05:43:41.017Z,6868
2017-08-24T05:44:40.768Z,7148
2017-08-24T05:45:30.555Z,7616
2017-08-24T05:46:17.962Z,8112
2017-08-24T05:47:11.840Z,8628
2017-08-24T05:48:00.959Z,8440
2017-08-24T05:48:49.911Z,8844
2017-08-24T05:49:44.055Z,9036
2017-08-24T05:50:32.515Z,9032
2017-08-24T05:51:20.587Z,8892
2017-08-24T05:52:15.176Z,8332
2017-08-24T05:53:03.300Z,7516
2017-08-24T05:53:57.671Z,6976
2017-08-24T05:54:51.808Z,6984
2017-08-24T05:55:46.786Z,6704
2017-08-24T05:56:35.451Z,6720
2017-08-24T05:57:23.453Z,7120
2017-08-24T05:58:13.003Z,6992
2017-08-24T05:59:01.630Z,6464
2017-08-24T05:59:49.648Z,6060
2017-08-24T06:00:38.676Z,5608
2017-08-24T06:01:27.676Z,4932
2017-08-24T06:02:17.145Z,4120
2017-08-24T06:03:11.209Z,3748
2017-08-24T06:04:04.945Z,3748
2017-08-24T06:04:54.018Z,3636
2017-08-24T06:05:43.011Z,3688
2017-08-24T06:06:36.895Z,3612
2017-08-24T06:07:38.541Z,3864
2017-08-24T06:08:31.983Z,4208
2017-08-24T06:09:26.158Z,4432
2017-08-24T06:10:21.138Z,5032
2017-08-24T06:11:10.610Z,5380
2017-08-24T06:12:04.629Z,6156
2017-08-24T06:12:53.507Z,7512
2017-08-24T06:13:47.345Z,8792
2017-08-24T06:14:36.468Z,9144
2017-08-24T06:15:25.652Z,8456
2017-08-24T06:16:20.884Z,7308
2017-08-24T06:17:15.800Z,6804
2017-08-24T06:18:05.025Z,6268
2017-08-24T06:18:59.916Z,6288
2017-08-24T06:19:55.038Z,6576
2017-08-24T06:20:49.140Z,6952
2017-08-24T06:21:38.125Z,7212
2017-08-24T06:22:33.242Z,7340
2017-08-24T06:23:27.265Z,7924
2017-08-24T06:24:22.335Z,8692
2017-08-24T06:25:22.326Z,9556
2017-08-24T06:26:11.488Z,9812
2017-08-24T06:27:06.264Z,9076
2017-08-24T06:28:06.346Z,8948
2017-08-24T06:28:55.491Z,8528
2017-08-24T06:29:49.546Z,7912
2017-08-24T06:30:44.158Z,7440
2017-08-24T06:31:39.580Z,7336
2017-08-24T06:32:33.276Z,8016
2017-08-24T06:33:22.212Z,8432
2017-08-24T06:34:16.810Z,8792
2017-08-24T06:35:11.569Z,8708
2017-08-24T06:36:00.901Z,8452
2017-08-24T06:36:50.110Z,8276
2017-08-24T06:37:49.997Z,7792
2017-08-24T06:38:44.117Z,7768
2017-08-24T06:39:33.105Z,8704
2017-08-24T06:40:28.195Z,10256
2017-08-24T06:41:17.136Z,10836
2017-08-24T06:42:06.153Z,11296
2017-08-24T06:43:00.215Z,11380
2017-08-24T06:43:54.281Z,10148
2017-08-24T06:44:48.266Z,10116
2017-08-24T06:45:42.341Z,9692
2017-08-24T06:46:31.425Z,9680
2017-08-24T06:47:19.410Z,8808
2017-08-24T06:48:13.477Z,8336
2017-08-24T06:49:07.514Z,8772
2017-08-24T06:50:02.564Z,9304
2017-08-24T06:51:02.551Z,8824
2017-08-24T06:51:56.680Z,8808
2017-08-24T06:52:56.877Z,8888
2017-08-24T06:53:45.731Z,9752
2017-08-24T06:54:39.790Z,9876
2017-08-24T06:55:40.875Z,9244
2017-08-24T06:56:28.940Z,9452
2017-08-24T06:57:23.072Z,9132
2017-08-24T06:58:16.921Z,8444
2017-08-24T06:59:10.978Z,7436
2017-08-24T07:00:06.052Z,6872
2017-08-24T07:00:55.035Z,7276
2017-08-24T07:01:49.106Z,7868
2017-08-24T07:02:44.289Z,8384
2017-08-24T07:03:38.246Z,8876
2017-08-24T07:04:33.276Z,8216
2017-08-24T07:05:22.347Z,7852
2017-08-24T07:06:22.352Z,8020
2017-08-24T07:07:16.307Z,7644
2017-08-24T07:08:10.383Z,8212
2017-08-24T07:08:59.561Z,8524
2017-08-24T07:09:53.592Z,8192
2017-08-24T07:10:53.578Z,7740
2017-08-24T07:11:41.599Z,7748
2017-08-24T07:12:41.588Z,8428
2017-08-24T07:13:29.775Z,7976
2017-08-24T07:14:24.839Z,7584
2017-08-24T07:15:18.825Z,7888
2017-08-24T07:16:06.800Z,8256
2017-08-24T07:17:00.935Z,8968
2017-08-24T07:17:49.963Z,10180
2017-08-24T07:18:38.960Z,11892
2017-08-24T07:19:34.070Z,12872
2017-08-24T07:20:28.171Z,12000
2017-08-24T07:21:22.139Z,10936
2017-08-24T07:22:16.242Z,10508
2017-08-24T07:23:17.302Z,10648
2017-08-24T07:24:18.316Z,11536
2017-08-24T07:25:12.731Z,9980
2017-08-24T07:26:06.377Z,8780
2017-08-24T07:27:01.465Z,9152
2017-08-24T07:28:01.443Z,9872
2017-08-24T07:28:56.580Z,12120
2017-08-24T07:29:56.540Z,14988
2017-08-24T07:30:51.644Z,14256
2017-08-24T07:31:46.509Z,12080
2017-08-24T07:32:40.602Z,11312
2017-08-24T07:33:40.662Z,11928
2017-08-24T07:34:34.765Z,11848
2017-08-24T07:35:28.833Z,11172
2017-08-24T07:36:17.951Z,11460
2017-08-24T07:37:12.959Z,12912
2017-08-24T07:38:06.918Z,14464
2017-08-24T07:39:01.982Z,12428
2017-08-24T07:39:51.036Z,9916
2017-08-24T07:40:46.078Z,8920
2017-08-24T07:41:34.134Z,9960
2017-08-24T07:42:34.211Z,12072
2017-08-24T07:43:29.170Z,13396
2017-08-24T07:44:18.294Z,13332
2017-08-24T07:45:12.339Z,9796
2017-08-24T07:46:07.318Z,10236
2017-08-24T07:46:55.437Z,14096
2017-08-24T07:47:50.353Z,15252
2017-08-24T07:48:51.544Z,13796
2017-08-24T07:49:40.501Z,14060
2017-08-24T07:50:35.528Z,16704
2017-08-24T07:51:36.609Z,12436
2017-08-24T07:52:36.718Z,10820
2017-08-24T07:53:31.793Z,13312
2017-08-24T07:54:31.736Z,15756
2017-08-24T07:55:25.755Z,18560
2017-08-24T07:56:14.880Z,17664
2017-08-24T07:57:14.863Z,15556
2017-08-24T07:58:08.877Z,15240
2017-08-24T07:58:57.006Z,16356
2017-08-24T07:59:50.997Z,17760
2017-08-24T08:00:40.101Z,17984
2017-08-24T08:01:34.068Z,19264
2017-08-24T08:02:22.141Z,15940
2017-08-24T08:03:16.160Z,14788
2017-08-24T08:04:10.244Z,17568
2017-08-24T08:05:10.385Z,15592
2017-08-24T08:05:59.452Z,14760
2017-08-24T08:06:53.510Z,16832
2017-08-24T08:07:48.607Z,17888
2017-08-24T08:08:36.515Z,16184
2017-08-24T08:09:36.531Z,14116
2017-08-24T08:10:25.640Z,13364
2017-08-24T08:11:25.649Z,15452
2017-08-24T08:12:20.759Z,15812
2017-08-24T08:13:15.817Z,13344
2017-08-24T08:14:10.791Z,13428
2017-08-24T08:14:59.908Z,14856
2017-08-24T08:15:53.971Z,14780
2017-08-24T08:16:47.973Z,14184
2017-08-24T08:17:36.971Z,14968
2017-08-24T08:18:32.041Z,15044
2017-08-24T08:19:20.074Z,14812
2017-08-24T08:20:09.159Z,16544
2017-08-24T08:21:04.195Z,19040
2017-08-24T08:22:04.225Z,19040
2017-08-24T08:23:04.311Z,23616
2017-08-24T08:24:04.341Z,24128
2017-08-24T08:24:53.408Z,19872
2017-08-24T08:25:42.478Z,19264
2017-08-24T08:26:37.404Z,17280
2017-08-24T08:27:38.492Z,20224
2017-08-24T08:28:38.506Z,26624
2017-08-24T08:29:33.559Z,28672
2017-08-24T08:30:29.034Z,43136
2017-08-24T08:31:17.714Z,34176
2017-08-24T08:32:18.706Z,38048
2017-08-24T08:33:12.871Z,27968
2017-08-24T08:34:00.948Z,27712
2017-08-24T08:34:55.944Z,31712
2017-08-24T08:35:56.974Z,32384
2017-08-24T08:36:51.023Z,34592
2017-08-24T08:37:39.040Z,43424
2017-08-24T08:38:33.114Z,45024
2017-08-24T08:39:27.181Z,43008
2017-08-24T08:40:22.133Z,38624
2017-08-24T08:41:22.297Z,33504
2017-08-24T08:42:17.316Z,31456
2017-08-24T08:44:04.750Z,33760
2017-08-24T08:45:04.710Z,31744
2017-08-24T08:45:58.744Z,38208
2017-08-24T08:46:47.841Z,37888
2017-08-24T08:47:48.004Z,33536
2017-08-24T08:48:36.912Z,39968
2017-08-24T08:49:31.034Z,28896
2017-08-24T08:50:26.100Z,29856
2017-08-24T08:51:20.113Z,27616
2017-08-24T08:52:14.152Z,33504
2017-08-24T08:53:09.232Z,35680
2017-08-24T08:53:58.298Z,31488
2017-08-24T08:54:46.353Z,33472
2017-08-24T08:55:35.371Z,59840
2017-08-24T08:56:29.421Z,54848
2017-08-24T08:57:18.482Z,42752
2017-08-24T08:58:12.585Z,60064
2017-08-24T08:59:00.650Z,34624
2017-08-24T09:00:00.680Z,37728
2017-08-24T09:00:49.591Z,34688
2017-08-24T09:01:51.189Z,35072
2017-08-24T09:02:38.887Z,33024
2017-08-24T09:03:32.888Z,34400
2017-08-24T09:04:33.880Z,34368
2017-08-24T09:05:27.895Z,34784
2017-08-24T09:06:16.052Z,34816
2017-08-24T09:07:16.087Z,37312
2017-08-24T09:08:10.061Z,57760
2017-08-24T09:09:04.112Z,59584
2017-08-24T09:09:59.297Z,54976
2017-08-24T09:10:53.354Z,45248
2017-08-24T09:11:53.295Z,72768
2017-08-24T09:12:47.452Z,54784
2017-08-24T09:13:42.563Z,69120
2017-08-24T09:14:36.428Z,69760
2017-08-24T09:15:24.436Z,70464
2017-08-24T09:16:18.552Z,68576
2017-08-24T09:17:12.620Z,68608
2017-08-24T09:18:12.758Z,68800
2017-08-24T09:19:07.910Z,71360
2017-08-24T09:20:02.782Z,75072
2017-08-24T09:20:51.850Z,76416
2017-08-24T09:21:45.988Z,76576
2017-08-24T09:22:45.986Z,64384
2017-08-24T09:23:41.121Z,48544
2017-08-24T09:24:29.190Z,49280
2017-08-24T09:25:29.271Z,37184
2017-08-24T09:26:23.269Z,50208
2017-08-24T09:27:17.259Z,58208
2017-08-24T09:28:11.331Z,38496
2017-08-24T09:29:06.396Z,40800
2017-08-24T09:30:00.446Z,43072
2017-08-24T09:30:49.527Z,36064
2017-08-24T09:31:38.556Z,55232
2017-08-24T09:32:33.627Z,61248
2017-08-24T09:33:21.699Z,66240
2017-08-24T09:34:15.668Z,71520
2017-08-24T09:35:09.845Z,69536
2017-08-24T09:36:03.916Z,71520
2017-08-24T09:36:57.849Z,63264
2017-08-24T09:37:52.067Z,42144
2017-08-24T09:38:41.095Z,74080
2017-08-24T09:39:29.066Z,60512
2017-08-24T09:40:24.218Z,66624
2017-08-24T09:41:13.249Z,56256
2017-08-24T09:42:01.336Z,38656
2017-08-24T09:42:50.362Z,35808
2017-08-24T09:43:44.514Z,36736
2017-08-24T09:44:38.457Z,38144
2017-08-24T09:45:33.602Z,39104
2017-08-24T09:46:22.537Z,38336
2017-08-24T09:47:16.659Z,39584
2017-08-24T09:48:10.710Z,44256
2017-08-24T09:48:59.780Z,46176
2017-08-24T09:49:53.764Z,59808
2017-08-24T09:50:42.031Z,59200
2017-08-24T09:51:41.937Z,57248
2017-08-24T09:52:36.067Z,52512
2017-08-24T09:53:30.042Z,48640
2017-08-24T09:54:24.201Z,52000
2017-08-24T09:55:18.134Z,60032
2017-08-24T09:56:18.233Z,54912
2017-08-24T09:57:13.312Z,54528
2017-08-24T09:58:08.444Z,51072
2017-08-24T09:59:03.381Z,49536
2017-08-24T09:59:57.499Z,83168
2017-08-24T10:00:46.560Z,56992
2017-08-24T10:01:40.564Z,65440
2017-08-24T10:02:35.580Z,45024
2017-08-24T10:03:29.647Z,45312
2017-08-24T10:04:23.758Z,61760
2017-08-24T10:05:23.803Z,73344
2017-08-24T10:06:17.837Z,80000
2017-08-24T10:07:12.168Z,82432
2017-08-24T10:08:05.900Z,66944
2017-08-24T10:09:00.961Z,59520
2017-08-24T10:09:56.005Z,41632
2017-08-24T10:10:50.103Z,40832
2017-08-24T10:11:44.092Z,43168
2017-08-24T10:12:45.326Z,36032
2017-08-24T10:13:40.308Z,33760
2017-08-24T10:14:34.348Z,32192
2017-08-24T10:15:23.471Z,30656
2017-08-24T10:16:18.480Z,27584
2017-08-24T10:17:07.576Z,25152
2017-08-24T10:18:02.655Z,22880
2017-08-24T10:18:56.691Z,20320
2017-08-24T10:19:51.701Z,19712
2017-08-24T10:20:40.916Z,20736
2017-08-24T10:21:35.786Z,22880
2017-08-24T10:22:23.949Z,24288
2017-08-24T10:23:12.025Z,24960
2017-08-24T10:24:07.048Z,27264
2017-08-24T10:25:01.068Z,36064
2017-08-24T10:25:49.118Z,45888
2017-08-24T10:26:43.199Z,58592
2017-08-24T10:27:32.286Z,55040
2017-08-24T10:28:32.867Z,36448
2017-08-24T10:29:28.197Z,32512
2017-08-24T10:30:22.864Z,29088
2017-08-24T10:31:22.862Z,27648
2017-08-24T10:32:16.497Z,24864
2017-08-24T10:33:11.565Z,23712
2017-08-24T10:34:11.523Z,25792
2017-08-24T10:35:00.698Z,31680
2017-08-24T10:35:54.735Z,39488
2017-08-24T10:36:54.740Z,41792
2017-08-24T10:37:49.883Z,38912
2017-08-24T10:38:49.891Z,40160
2017-08-24T10:39:49.991Z,45312
2017-08-24T10:40:43.980Z,44480
2017-08-24T10:41:33.117Z,45376
2017-08-24T10:42:27.055Z,49792
2017-08-24T10:43:21.118Z,53984
2017-08-24T10:44:15.348Z,38976
2017-08-24T10:45:10.287Z,32736
2017-08-24T10:45:58.371Z,31808
2017-08-24T10:46:58.469Z,32928
2017-08-24T10:47:46.408Z,41216
2017-08-24T10:48:46.551Z,43616
2017-08-24T10:49:35.581Z,44064
2017-08-24T10:50:24.617Z,50784
2017-08-24T10:51:19.599Z,46176
2017-08-24T10:52:08.699Z,49472
2017-08-24T10:53:02.805Z,56768
2017-08-24T10:53:57.782Z,36928
2017-08-24T10:54:46.831Z,37248
2017-08-24T10:55:35.052Z,39968
2017-08-24T10:56:28.972Z,58048
2017-08-24T10:57:23.013Z,46496
2017-08-24T10:58:12.140Z,51552
2017-08-24T10:59:07.207Z,77888
2017-08-24T11:00:07.211Z,54336
2017-08-24T11:01:01.379Z,75552
2017-08-24T11:01:49.495Z,76448
2017-08-24T11:02:38.413Z,77760
2017-08-24T11:03:27.455Z,74464
2017-08-24T11:04:27.676Z,62400
2017-08-24T11:05:15.672Z,52992
2017-08-24T11:06:15.757Z,47264
2017-08-24T11:07:21.852Z,38528
2017-08-24T11:08:09.789Z,37408
2017-08-24T11:09:10.072Z,37440
2017-08-24T11:10:03.982Z,34112
2017-08-24T11:10:58.110Z,34368
2017-08-24T11:11:52.151Z,34912
2017-08-24T11:12:41.278Z,32800
2017-08-24T11:13:29.358Z,30752
2017-08-24T11:14:24.318Z,32288
2017-08-24T11:15:19.397Z,69888
2017-08-24T11:16:13.592Z,36352
2017-08-24T11:17:07.511Z,36256
2017-08-24T11:18:07.859Z,42496
2017-08-24T11:19:07.727Z,48288
2017-08-24T11:20:01.698Z,74080
2017-08-24T11:20:50.727Z,74944
2017-08-24T11:21:44.706Z,68096
2017-08-24T11:22:33.828Z,37952
2017-08-24T11:23:33.918Z,54112
2017-08-24T11:24:29.088Z,37184
2017-08-24T11:25:23.034Z,35872
2017-08-24T11:26:17.021Z,35776
2017-08-24T11:27:12.256Z,41824
2017-08-24T11:28:01.179Z,46880
2017-08-24T11:29:01.230Z,38016
2017-08-24T11:29:50.249Z,39200
2017-08-24T11:30:44.212Z,39680
2017-08-24T11:31:39.327Z,46720
2017-08-24T11:32:34.481Z,48832
2017-08-24T11:33:29.505Z,70080
2017-08-24T11:34:24.517Z,83296
2017-08-24T11:35:18.675Z,48832
2017-08-24T11:36:13.802Z,46272
2017-08-24T11:37:02.757Z,49856
2017-08-24T11:37:51.876Z,66880
2017-08-24T11:38:40.911Z,65312
2017-08-24T11:39:35.114Z,53120
2017-08-24T11:40:29.029Z,66784
2017-08-24T11:41:17.166Z,69152
2017-08-24T11:42:11.222Z,43424
2017-08-24T11:43:06.237Z,38144
2017-08-24T11:44:06.346Z,55168
2017-08-24T11:44:55.725Z,73440
2017-08-24T11:45:50.427Z,44032
2017-08-24T11:46:39.617Z,61408
2017-08-24T11:47:33.641Z,63104
2017-08-24T11:48:22.589Z,47488
2017-08-24T11:49:11.605Z,67712
2017-08-24T11:50:05.750Z,42272
2017-08-24T11:50:59.750Z,44736
2017-08-24T11:51:54.777Z,37376
2017-08-24T11:52:42.811Z,40800
2017-08-24T11:53:36.945Z,46880
2017-08-24T11:54:31.926Z,47776
2017-08-24T11:55:26.031Z,63296
2017-08-24T11:56:20.087Z,61344
2017-08-24T11:57:20.085Z,38272
2017-08-24T11:58:14.317Z,34816
2017-08-24T11:59:08.266Z,57568
2017-08-24T12:00:02.397Z,36032
2017-08-24T12:01:02.417Z,31584
2017-08-24T12:01:50.346Z,30432
2017-08-24T12:02:45.430Z,31104
2017-08-24T12:03:39.619Z,57344
2017-08-24T12:04:34.554Z,59712
2017-08-24T12:05:28.779Z,44896
2017-08-24T12:06:28.708Z,68864
2017-08-24T12:07:22.801Z,45088
2017-08-24T12:08:16.774Z,60544
2017-08-24T12:09:11.879Z,42752
2017-08-24T12:10:18.067Z,40416
2017-08-24T12:11:06.009Z,60960
2017-08-24T12:12:00.176Z,30176
2017-08-24T12:13:06.218Z,26016
2017-08-24T12:14:06.217Z,26176